SBBRSBAN

Guest
Details From SBBR - Brasilia Presidente Juscelino Kubitsch
To SBAN - BASE AEREA
Flight Number -
Tags decoded
Created
Modified
Stats Distance 64 nm / 119 km
Max Altitude 0 ft / 0 m
Waypoints 2
Social Downloads 3
Likes 0
Share VATSIM

Download

Looking for another format? Having issues loading an existing format? Contact us
Advertisement - Login to hide

Notes

Requested: SBBR DTC BSB DTC SBAN Unmatched points: DTC BSB DTC

Route

SBBR SBAN

ID Type Via Altitude Latitude Longitude Leg Dist Tot Dist Heading (true) Name
O SBBR APT - 0 ft / 0 m -15.87110˚ -47.91863˚ - 0 nm - Brasilia Presidente Juscelino Kubitsch
O SBAN APT - 0 ft / 0 m -16.22915˚ -48.96427˚ 64 nm 64 nm 250° / 251° BASE AEREA

Altitude Profile

Advertisement - Login to hide

SBBR

Details ICAO SBBR (BSB)
Name Brasilia Presidente Juscelino Kubitsch
Region Brazil
Timezone America/Sao_Paulo (UTC-2.0)
Stats Elevation 3,479 ft / 1,060 m (AMSL)
Location -15.871101° -47.918626°
Runways 2
Magnetic Variation 21.550° W

METAR

SBBR 160500Z 26004KT 9999 FEW007 BKN070 18/17 Q1017

Decode

TAF

TAF SBBR 151600Z 1518/1618 34005KT 8000 SCT015 FEW030TCU TX22/1518Z TN18/1607Z PROB30 TEMPO 1518/1523 4000 TSRA BKN010 FEW030CB BECMG 1523/1601 7000 BKN012 PROB30 TEMPO 1608/1611 6000 RA BKN008 BECMG 1614/1616 06008KT 8000 SCT020 FEW035TCU RMK PDA

Decode

Departure Runways

ID Width Length Bearing (true) Bearing (mag) Surface Threshold Offset Overrun Length
11L 148 ft / 45 m 10,493 ft / 3,198 m 86.35° 107.90° Asphalt 0 ft / 0 m 200 ft / 61 m
11R 148 ft / 45 m 10,839 ft / 3,304 m 86.00° 107.55° Asphalt 2,635 ft / 803 m 200 ft / 61 m
29L 148 ft / 45 m 10,839 ft / 3,304 m 265.99° 287.54° Asphalt 0 ft / 0 m 200 ft / 61 m
29R 148 ft / 45 m 10,493 ft / 3,198 m 266.34° 287.89° Asphalt 0 ft / 0 m 200 ft / 61 m

SBAN

Details ICAO SBAN
Name BASE AEREA
Region Brazil
Timezone America/Sao_Paulo (UTC-2.0)
Stats Elevation 3,728 ft / 1,136 m (AMSL)
Location -16.229153° -48.964267°
Runways 2
Magnetic Variation 21.116° W

METAR

Not found

TAF

TAF TAF SBAN 151600Z 1518/1606 33005KT 6000 BKN008 FEW030TCU TX23/1519Z TN18/1605Z PROB30 TEMPO 1518/1522 3000 TSRA BKN005 FEW030CB FM160200 01007KT 4000 BR BKN004 RMK PDA

Decode

Destination Runways

ID Width Length Bearing (true) Bearing (mag) Surface Threshold Offset Overrun Length
06L 148 ft / 45 m 10,862 ft / 3,311 m 38.85° 59.97° Asphalt 0 ft / 0 m 1,151 ft / 351 m
06R 75 ft / 23 m 7,469 ft / 2,277 m 38.80° 59.92° Asphalt 0 ft / 0 m 0 ft / 0 m
24L 75 ft / 23 m 7,469 ft / 2,277 m 218.79° 239.91° Asphalt 0 ft / 0 m 0 ft / 0 m
24R 148 ft / 45 m 10,862 ft / 3,311 m 218.84° 239.96° Asphalt 0 ft / 0 m 1,142 ft / 348 m